Time;durP1;ratioP1;P1;durP2;ratioP2;P2;SDS_P1;SDS_P2;PMS_P1;PMS_P2;Temp;Humidity;BMP_temperature;BMP_pressure;BME280_temperature;BME280_humidity;BME280_pressure;Samples;Min_cycle;Max_cycle;Signal;HPM_P1;HPM_P2
2022/04/24 00:01:59;;;;;;;11.95;9.02;;;;;;;11.19;53.15;100275.03;6186854;23;20481;-79
2022/04/24 00:04:25;;;;;;;11.38;8.68;;;;;;;11.02;53.02;100243.63;6187046;23;20043;-79
2022/04/24 00:06:53;;;;;;;17.00;8.80;;;;;;;11.11;53.49;100274.78;6187022;23;20005;-78
2022/04/24 00:09:21;;;;;;;13.23;8.90;;;;;;;10.90;54.02;100250.50;6183833;23;20024;-79
2022/04/24 00:11:47;;;;;;;12.25;8.73;;;;;;;11.00;53.29;100269.56;6187060;23;20067;-78
2022/04/24 00:14:13;;;;;;;11.50;8.73;;;;;;;10.64;54.05;100224.03;6186673;23;20427;-78
2022/04/24 00:16:39;;;;;;;13.90;9.45;;;;;;;10.88;54.38;100270.47;6186579;23;20009;-79
2022/04/24 00:19:05;;;;;;;15.48;8.82;;;;;;;10.79;54.73;100264.22;6186207;23;20011;-79
2022/04/24 00:21:31;;;;;;;12.60;9.32;;;;;;;10.74;54.72;100263.75;6186452;23;20084;-79
2022/04/24 00:24:40;;;;;;;11.77;8.63;;;;;;;10.71;54.79;100263.94;6186818;23;20012;-78
2022/04/24 00:27:30;;;;;;;13.95;8.88;;;;;;;10.63;54.83;100261.13;6186216;23;20008;-78
2022/04/24 00:30:36;;;;;;;11.93;9.38;;;;;;;10.56;55.30;100259.91;6159898;23;20450;-79
2022/04/24 00:36:09;;;;;;;12.98;9.68;;;;;;;10.45;55.36;100252.94;6186840;22;20457;-79
2022/04/24 00:38:48;;;;;;;13.35;8.98;;;;;;;9.28;55.74;100075.53;6159846;23;20375;-79
2022/04/24 00:41:20;;;;;;;16.50;9.55;;;;;;;10.33;56.20;100244.31;6186426;23;20055;-78
2022/04/24 00:47:20;;;;;;;13.27;8.93;;;;;;;9.71;55.93;100156.66;6186263;23;20052;-77
2022/04/24 01:04:02;;;;;;;12.93;9.68;;;;;;;10.07;56.56;100248.69;6124691;23;20033;-80
2022/04/24 01:06:39;;;;;;;13.80;9.82;;;;;;;8.84;57.14;100048.50;6124635;23;20424;-78
2022/04/24 01:09:13;;;;;;;12.95;9.45;;;;;;;9.27;57.32;100133.97;6174191;22;20017;-78
2022/04/24 01:12:15;;;;;;;14.27;10.52;;;;;;;9.97;57.23;100249.44;6186485;23;20085;-78
2022/04/24 01:14:49;;;;;;;14.07;9.85;;;;;;;9.17;57.63;100131.19;6186536;23;20005;-78
2022/04/24 01:20:36;;;;;;;13.88;10.23;;;;;;;8.65;58.03;100073.84;6186195;23;20063;-79
2022/04/24 01:23:30;;;;;;;15.73;10.82;;;;;;;9.74;58.02;100251.03;6186214;23;20009;-79
2022/04/24 01:26:01;;;;;;;14.35;10.27;;;;;;;9.67;58.63;100248.03;6159658;23;20338;-78
2022/04/24 01:28:26;;;;;;;14.63;10.38;;;;;;;9.20;58.69;100181.69;6186039;23;20374;-78
2022/04/24 01:30:55;;;;;;;16.20;10.80;;;;;;;8.47;59.35;100071.59;6186251;23;20009;-79
2022/04/24 01:33:42;;;;;;;16.20;10.73;;;;;;;9.52;59.08;100251.66;6186298;23;20070;-79
2022/04/24 01:36:12;;;;;;;16.27;10.70;;;;;;;8.30;59.16;100056.41;6186139;23;20028;-78
2022/04/24 01:38:37;;;;;;;17.23;11.35;;;;;;;9.48;59.56;100250.22;6186050;23;20009;-78
2022/04/24 01:41:11;;;;;;;14.57;10.98;;;;;;;8.95;59.25;100173.94;6134186;23;20067;-79
2022/04/24 01:43:37;;;;;;;15.75;11.27;;;;;;;8.67;59.46;100142.31;6186227;23;20005;-78
2022/04/24 01:46:06;;;;;;;15.65;10.90;;;;;;;9.24;60.02;100237.22;6184921;22;20474;-79
2022/04/24 01:48:44;;;;;;;16.13;11.10;;;;;;;9.29;59.63;100248.06;6186144;23;20051;-78
2022/04/24 01:51:48;;;;;;;14.75;10.57;;;;;;;9.22;59.97;100259.69;6186008;23;20005;-79
2022/04/24 01:54:16;;;;;;;15.18;10.95;;;;;;;8.33;60.63;100116.16;6186045;23;20001;-79
2022/04/24 01:56:47;;;;;;;16.90;11.57;;;;;;;9.06;60.53;100235.88;6159425;23;20034;-79
2022/04/24 02:11:24;;;;;;;15.13;11.57;;;;;;;8.68;60.64;100174.84;6186384;22;20032;-79
2022/04/24 02:13:50;;;;;;;16.27;11.48;;;;;;;9.20;60.68;100257.22;6186101;23;20035;-78
2022/04/24 02:18:53;;;;;;;16.92;12.13;;;;;;;9.03;60.78;100238.63;6186472;23;20029;-77
2022/04/24 02:21:55;;;;;;;16.95;12.60;;;;;;;9.15;60.92;100256.72;6186119;23;20012;-78
2022/04/24 02:24:20;;;;;;;16.83;12.48;;;;;;;7.95;61.39;100064.63;6185898;23;20308;-78
2022/04/24 02:26:45;;;;;;;15.80;11.95;;;;;;;9.05;61.57;100254.84;6158724;23;20043;-76
2022/04/24 02:29:11;;;;;;;16.45;11.70;;;;;;;8.53;61.39;100173.25;6185669;23;20423;-78
2022/04/24 02:31:36;;;;;;;15.55;11.88;;;;;;;8.63;61.72;100184.59;6185707;23;20075;-78
2022/04/24 02:34:01;;;;;;;18.67;14.00;;;;;;;8.95;61.85;100254.63;6185408;23;20047;-78
2022/04/24 02:36:27;;;;;;;18.45;13.20;;;;;;;8.88;62.18;100251.59;6185762;23;20012;-78
2022/04/24 02:38:52;;;;;;;18.65;12.85;;;;;;;8.50;62.32;100196.63;6185910;23;20056;-78
2022/04/24 02:41:17;;;;;;;17.50;12.57;;;;;;;8.74;62.53;100253.41;6185647;23;20009;-78
2022/04/24 02:43:43;;;;;;;16.75;12.73;;;;;;;8.71;62.70;100251.03;6185717;23;20008;-78
2022/04/24 02:46:08;;;;;;;18.42;13.75;;;;;;;8.64;63.02;100253.19;6185729;23;20005;-78
2022/04/24 02:48:33;;;;;;;20.05;13.82;;;;;;;8.52;63.50;100244.50;6185153;23;20375;-78
2022/04/24 02:50:59;;;;;;;18.88;13.45;;;;;;;8.45;63.36;100250.13;6185920;23;20040;-78
2022/04/24 02:53:24;;;;;;;18.40;13.43;;;;;;;8.51;63.51;100265.19;6185852;23;20036;-78
2022/04/24 02:55:52;;;;;;;19.50;13.27;;;;;;;8.46;63.81;100262.91;6185331;23;20008;-78
2022/04/24 02:58:20;;;;;;;17.35;13.68;;;;;;;8.38;63.94;100262.56;6185135;23;20025;-77
2022/04/24 03:00:51;;;;;;;21.27;14.23;;;;;;;8.40;64.12;100263.28;6185629;23;19997;-78
2022/04/24 03:03:20;;;;;;;21.00;13.95;;;;;;;8.24;64.03;100254.84;6185147;23;20077;-78
2022/04/24 03:05:49;;;;;;;19.33;14.68;;;;;;;8.18;64.66;100250.91;6185679;23;20001;-78
2022/04/24 03:08:16;;;;;;;18.10;13.60;;;;;;;8.19;64.85;100262.03;6185380;23;20005;-78
2022/04/24 03:10:54;;;;;;;20.98;14.55;;;;;;;7.69;64.81;100187.09;6186034;22;20028;-78
2022/04/24 03:13:21;;;;;;;19.15;13.93;;;;;;;7.27;65.02;100118.59;6185364;23;20037;-77
2022/04/24 03:21:20;;;;;;;20.88;14.57;;;;;;;7.27;65.33;100134.00;6246791;23;20020;-78
2022/04/24 03:23:54;;;;;;;21.40;14.73;;;;;;;6.83;65.86;100062.22;6247790;23;20001;-78
2022/04/24 03:49:24;;;;;;;;;;;;;;;7.85;67.61;100270.97;6187505;23;20028;-79
2022/04/24 03:51:59;;;;;;;22.23;15.20;;;;;;;6.81;68.50;100102.56;6187329;23;19908;-79
2022/04/24 03:57:51;;;;;;;20.60;15.50;;;;;;;6.48;69.49;100059.16;6186573;23;20009;-78
2022/04/24 04:00:17;;;;;;;20.02;14.57;;;;;;;7.52;69.71;100245.56;6160690;23;20431;-79
2022/04/24 04:23:30;;;;;;;23.33;14.93;;;;;;;7.41;71.29;100270.13;6216529;23;20091;-78
2022/04/24 04:25:56;;;;;;;23.45;15.13;;;;;;;7.34;72.24;100260.31;6217238;23;20330;-78
2022/04/24 04:28:21;;;;;;;21.10;14.98;;;;;;;6.98;71.83;100199.94;6201713;22;20040;-78
2022/04/24 04:31:12;;;;;;;23.13;15.55;;;;;;;7.42;71.45;100271.78;6186583;23;20009;-78
2022/04/24 04:33:43;;;;;;;19.38;14.27;;;;;;;6.97;71.73;100205.94;6160260;23;20012;-79
2022/04/24 04:36:11;;;;;;;21.85;14.57;;;;;;;7.34;71.75;100262.88;6160147;23;20008;-79
2022/04/24 04:38:37;;;;;;;20.13;14.52;;;;;;;7.41;72.58;100280.41;6186512;23;20352;-80
2022/04/24 04:41:03;;;;;;;19.15;13.95;;;;;;;7.28;72.11;100265.81;6187411;23;20028;-79
2022/04/24 04:43:29;;;;;;;19.58;14.23;;;;;;;7.15;72.34;100242.56;6186624;23;20001;-78
2022/04/24 04:45:57;;;;;;;25.60;14.48;;;;;;;7.37;72.38;100275.53;6186604;23;20001;-78
2022/04/24 04:51:57;;;;;;;;;;;;;;;;;;;;;
2022/04/24 04:55:04;;;;;;;19.00;14.23;;;;;;;6.26;71.54;100106.56;6186190;23;20072;-78
2022/04/24 04:57:29;;;;;;;23.85;14.45;;;;;;;6.71;72.32;100186.13;6186731;23;20360;-81
2022/04/24 05:00:00;;;;;;;20.25;14.57;;;;;;;7.03;72.37;100231.28;6186756;23;20012;-78
2022/04/24 05:05:57;;;;;;;22.17;14.13;;;;;;;6.65;72.27;100169.31;6186138;23;20128;-77
2022/04/24 05:08:27;;;;;;;18.75;13.27;;;;;;;6.85;72.19;100193.84;6186648;23;20005;-76
2022/04/24 05:11:02;;;;;;;18.63;13.10;;;;;;;6.76;71.97;100190.06;6186748;23;20089;-77
2022/04/24 05:17:07;;;;;;;19.52;13.40;;;;;;;7.64;71.96;100319.34;6186416;23;20039;-83
2022/04/24 05:19:49;;;;;;;18.90;12.63;;;;;;;7.47;71.57;100285.19;6186245;23;20013;-78
2022/04/24 05:22:22;;;;;;;21.35;13.25;;;;;;;7.11;71.72;100233.41;6159926;23;20009;-79
2022/04/24 05:24:48;;;;;;;20.17;13.13;;;;;;;7.76;71.20;100327.13;6186200;23;20004;-79
2022/04/24 05:27:16;;;;;;;20.27;13.48;;;;;;;7.70;71.20;100316.41;6186321;23;20335;-79
2022/04/24 05:29:42;;;;;;;20.42;13.07;;;;;;;7.87;71.11;100333.41;6160425;23;20008;-79
2022/04/24 05:32:08;;;;;;;20.27;13.35;;;;;;;7.95;70.56;100338.91;6186503;23;20000;-78
2022/04/24 05:34:33;;;;;;;19.35;12.80;;;;;;;7.82;70.36;100309.72;6186455;23;20072;-77
2022/04/24 05:36:59;;;;;;;19.10;13.15;;;;;;;7.99;69.87;100324.97;6185857;23;20059;-77
2022/04/24 05:39:24;;;;;;;19.45;12.63;;;;;;;7.90;69.99;100312.66;6185982;23;20005;-77
2022/04/24 05:41:50;;;;;;;17.23;12.18;;;;;;;8.14;69.97;100333.47;6186458;23;20005;-78
2022/04/24 05:44:15;;;;;;;18.38;11.90;;;;;;;8.22;69.07;100334.69;6186021;23;20010;-78
2022/04/24 05:46:40;;;;;;;16.83;11.77;;;;;;;8.40;68.85;100337.06;6185641;23;20012;-78
2022/04/24 05:49:06;;;;;;;18.70;12.05;;;;;;;8.86;68.30;100341.00;6185997;23;20012;-78
2022/04/24 05:51:33;;;;;;;17.23;11.88;;;;;;;9.90;64.19;100299.78;6185661;23;20470;-79
2022/04/24 05:53:59;;;;;;;16.05;12.02;;;;;;;11.57;59.34;100340.31;6186187;23;20013;-81
2022/04/24 05:56:24;;;;;;;14.27;10.27;;;;;;;12.76;55.89;100338.88;6186437;23;20005;-78
2022/04/24 05:58:49;;;;;;;15.23;10.27;;;;;;;13.57;52.52;100327.94;6185310;23;20020;-76
2022/04/24 06:01:15;;;;;;;14.35;10.45;;;;;;;14.30;49.75;100333.84;6185710;23;20423;-76
2022/04/24 06:03:40;;;;;;;16.27;10.30;;;;;;;14.61;48.50;100308.63;6185605;23;20005;-75
2022/04/24 06:06:07;;;;;;;17.88;10.23;;;;;;;15.24;47.34;100336.81;6185977;23;20064;-78
2022/04/24 06:08:32;;;;;;;13.82;9.48;;;;;;;15.46;45.23;100345.16;6183820;23;20005;-78
2022/04/24 06:10:57;;;;;;;14.18;10.00;;;;;;;15.47;45.08;100351.19;6184681;23;20020;-76
2022/04/24 06:13:23;;;;;;;15.23;9.43;;;;;;;15.58;44.73;100330.22;6185358;23;20076;-81
2022/04/24 06:15:48;;;;;;;18.08;10.20;;;;;;;14.93;44.59;100219.97;6183906;22;20063;-82
2022/04/24 06:18:14;;;;;;;13.63;10.07;;;;;;;15.07;44.76;100283.75;6186410;22;20100;-82
2022/04/24 06:20:43;;;;;;;14.73;10.32;;;;;;;15.10;44.13;100227.06;6185703;23;20016;-81
2022/04/24 06:23:12;;;;;;;13.40;9.55;;;;;;;15.25;44.10;100281.25;6185324;23;20039;-83
2022/04/24 06:28:38;;;;;;;13.30;8.93;;;;;;;15.61;42.94;100185.97;6187749;22;20036;-79
2022/04/24 06:37:56;;;;;;;13.15;9.40;;;;;;;17.49;41.28;100336.19;6184588;23;20088;-80
2022/04/24 06:41:07;;;;;;;14.48;9.07;;;;;;;16.90;41.39;100167.31;6184375;23;20005;-80
2022/04/24 06:47:28;;;;;;;12.05;8.85;;;;;;;18.04;40.24;100350.72;6185509;23;20051;-80
2022/04/24 06:49:55;;;;;;;15.48;10.20;;;;;;;17.52;38.91;100248.91;6185374;23;20009;-81
2022/04/24 06:52:58;;;;;;;13.68;9.27;;;;;;;18.68;38.40;100354.59;6184986;23;20009;-80
2022/04/24 06:55:40;;;;;;;13.52;9.48;;;;;;;18.15;38.79;100300.78;6185419;23;20013;-80
2022/04/24 06:58:19;;;;;;;13.55;9.65;;;;;;;17.50;38.04;100190.81;6184938;22;20024;-80
2022/04/24 07:00:47;;;;;;;14.43;9.50;;;;;;;18.24;37.45;100305.06;6185279;23;20001;-80
2022/04/24 07:06:21;;;;;;;13.00;9.70;;;;;;;17.78;37.71;100201.88;6065480;23;20007;-80
2022/04/24 07:08:49;;;;;;;13.80;9.43;;;;;;;18.10;37.30;100250.81;6065063;23;20014;-81
2022/04/24 07:11:23;;;;;;;15.52;10.20;;;;;;;17.89;37.83;100193.75;6125902;22;20025;-79
2022/04/24 07:14:26;;;;;;;12.88;9.60;;;;;;;17.72;37.70;100199.91;6185296;23;20001;-80
2022/04/24 07:17:26;;;;;;;14.70;9.98;;;;;;;16.69;40.47;100360.59;6181082;23;20016;-76
2022/04/24 07:20:16;;;;;;;11.77;9.32;;;;;;;14.94;43.94;100377.59;6184902;23;20546;-78
2022/04/24 07:29:35;;;;;;;16.45;10.40;;;;;;;13.05;49.30;100375.41;6185415;23;20242;-77
2022/04/24 07:32:03;;;;;;;14.80;11.05;;;;;;;11.58;50.75;100197.16;6185279;23;20005;-77
2022/04/24 07:34:40;;;;;;;16.17;11.77;;;;;;;11.49;50.99;100215.03;6185142;23;20008;-80
2022/04/24 07:37:27;;;;;;;15.27;11.70;;;;;;;12.50;51.54;100385.81;6185567;23;20008;-79
2022/04/24 07:39:52;;;;;;;16.38;11.25;;;;;;;11.43;51.78;100249.13;6184959;23;20100;-80
2022/04/24 07:43:15;;;;;;;15.38;11.48;;;;;;;11.22;52.56;100216.31;6185286;23;20037;-81
2022/04/24 08:13:18;;;;;;;19.25;13.35;;;;;;;12.15;51.72;100274.63;6176621;23;20029;-80
2022/04/24 08:19:46;;;;;;;16.73;11.77;;;;;;;13.22;51.94;100397.44;6186784;23;20394;-80
2022/04/24 09:38:26;;;;;;;19.05;14.15;;;;;;;14.83;47.35;100417.56;6201537;22;20028;-84
2022/04/24 09:41:01;;;;;;;22.10;13.07;;;;;;;14.66;46.99;100368.84;6159882;23;20009;-84
2022/04/24 10:18:04;;;;;;;17.15;12.45;;;;;;;15.44;45.08;100411.31;6155603;23;20018;-85
2022/04/24 10:24:33;;;;;;;17.35;12.20;;;;;;;14.69;44.64;100246.41;6156527;23;20045;-86
2022/04/24 10:36:10;;;;;;;14.98;11.77;;;;;;;15.68;43.04;100410.91;6151859;23;20033;-85
2022/04/24 10:42:30;;;;;;;15.93;12.38;;;;;;;14.67;42.52;100240.53;6156270;23;20035;-85
2022/04/24 10:45:43;;;;;;;18.15;12.48;;;;;;;15.82;43.17;100409.63;6156931;23;20008;-79
2022/04/24 10:48:16;;;;;;;16.92;12.18;;;;;;;15.70;42.87;100398.56;6148540;23;20088;-82
2022/04/24 10:54:13;;;;;;;17.10;12.30;;;;;;;15.09;44.29;100261.84;6155980;23;20072;-81
2022/04/24 11:04:18;;;;;;;17.40;12.57;;;;;;;16.12;41.74;100419.00;5980725;24;20016;-82
2022/04/24 11:10:27;;;;;;;15.15;11.23;;;;;;;16.11;42.08;100412.16;6253122;22;20380;-78
2022/04/24 11:40:48;;;;;;;16.20;12.05;;;;;;;15.98;41.52;100349.97;6187048;23;20031;-87
2022/04/24 11:43:31;;;;;;;16.55;11.55;;;;;;;15.51;41.98;100240.63;6161080;23;20063;-86
2022/04/24 12:14:36;;;;;;;17.30;10.93;;;;;;;16.86;41.01;100414.56;6187309;23;19962;-83
2022/04/24 14:56:43;;;;;;;9.77;7.03;;;;;;;17.65;35.42;100445.16;6125845;23;20029;-79
2022/04/24 14:59:43;;;;;;;11.52;7.47;;;;;;;17.81;35.76;100449.72;6126078;23;20329;-78
2022/04/24 15:02:11;;;;;;;10.05;6.63;;;;;;;17.33;34.41;100324.81;6126103;23;20036;-78
2022/04/24 15:08:14;;;;;;;9.65;6.57;;;;;;;16.87;35.17;100339.75;6126089;23;20037;-77
2022/04/24 15:11:26;;;;;;;11.82;7.38;;;;;;;17.29;35.61;100457.38;6100242;23;20002;-79
2022/04/24 15:14:36;;;;;;;11.75;6.80;;;;;;;16.94;35.89;100465.19;6126277;23;20032;-78
2022/04/24 15:28:35;;;;;;;9.93;6.57;;;;;;;17.65;34.70;100460.00;6186935;23;20019;-78
2022/04/24 15:31:25;;;;;;;10.13;6.13;;;;;;;17.52;35.68;100465.59;6187183;23;20009;-76
2022/04/24 15:37:48;;;;;;;;;;;;;;;;;;;;;
2022/04/24 15:40:55;;;;;;;9.73;6.13;;;;;;;16.77;36.19;100419.84;6023366;23;20486;-82
2022/04/24 15:50:16;;;;;;;9.13;6.03;;;;;;;16.84;36.69;100479.09;6199615;22;20097;-78
2022/04/24 16:01:12;;;;;;;8.15;5.78;;;;;;;16.69;36.25;100485.75;6186962;23;20029;-78
2022/04/24 16:04:17;;;;;;;9.23;5.93;;;;;;;16.74;36.83;100480.94;6187014;23;20426;-79
2022/04/24 16:07:07;;;;;;;8.50;5.82;;;;;;;16.78;36.10;100482.28;6186820;23;20414;-79
2022/04/24 16:10:10;;;;;;;8.95;5.53;;;;;;;16.92;36.38;100489.66;6187137;22;20009;-78
2022/04/24 16:13:11;;;;;;;8.07;5.20;;;;;;;17.07;36.80;100486.53;6144750;23;20029;-78
2022/04/24 16:18:43;;;;;;;9.48;5.63;;;;;;;17.24;36.08;100484.91;6192590;22;20276;-79
2022/04/24 16:21:42;;;;;;;9.93;5.88;;;;;;;17.34;36.11;100486.47;6184906;23;20063;-79
2022/04/24 16:36:09;;;;;;;12.23;4.82;;;;;;;15.85;36.27;100346.88;6186387;23;20016;-78
2022/04/24 16:38:34;;;;;;;9.45;5.57;;;;;;;16.35;35.88;100452.41;6109415;23;20419;-80
2022/04/24 16:41:43;;;;;;;9.32;5.13;;;;;;;16.73;36.91;100501.97;6186568;23;20131;-79
2022/04/24 16:47:42;;;;;;;9.43;5.45;;;;;;;16.75;37.00;100518.28;6186663;23;20020;-78
2022/04/24 16:50:09;;;;;;;8.53;5.13;;;;;;;15.72;37.84;100353.19;6186957;23;20008;-79
2022/04/24 16:58:48;;;;;;;8.93;5.53;;;;;;;15.92;37.43;100444.28;6192895;22;20379;-81
2022/04/24 17:01:44;;;;;;;7.70;4.93;;;;;;;16.28;37.70;100519.06;6186206;23;20005;-79
2022/04/24 17:15:03;;;;;;;;;;;;;;;;;;;;;
2022/04/24 17:29:55;;;;;;;;;;;;;;;15.32;39.92;100545.09;6186803;23;20020;-88
2022/04/24 17:59:47;;;;;;;12.40;5.13;;;;;;;15.01;41.01;100570.31;6201901;22;20020;-79
2022/04/24 18:02:14;;;;;;;7.20;4.47;;;;;;;14.44;40.88;100486.72;6155999;23;20005;-77
2022/04/24 18:05:15;;;;;;;8.13;4.65;;;;;;;14.86;41.41;100573.28;6156074;23;20006;-79
2022/04/24 18:11:10;;;;;;;9.23;4.40;;;;;;;14.19;41.31;100507.94;6155892;23;20458;-79
2022/04/24 18:13:36;;;;;;;8.30;4.70;;;;;;;14.45;41.58;100568.94;6178600;23;20451;-81
2022/04/24 18:16:56;;;;;;;6.38;4.00;;;;;;;14.48;41.88;100588.69;6156137;23;20063;-80
2022/04/24 18:26:58;;;;;;;7.35;4.53;;;;;;;14.07;43.35;100588.50;6185586;23;20342;-79
2022/04/24 18:30:02;;;;;;;8.55;4.25;;;;;;;13.91;43.95;100601.06;6183684;23;20005;-76
2022/04/24 18:32:45;;;;;;;6.88;4.35;;;;;;;13.35;43.79;100531.16;6174232;23;20012;-78
2022/04/24 18:38:46;;;;;;;11.25;4.80;;;;;;;13.55;45.59;100614.38;6173727;22;20122;-78
2022/04/24 18:41:30;;;;;;;7.05;4.18;;;;;;;12.66;45.68;100489.03;6185291;23;20017;-78
2022/04/24 18:43:58;;;;;;;9.43;4.57;;;;;;;12.23;47.34;100450.06;6133191;23;20009;-76
2022/04/24 18:59:15;;;;;;;7.22;4.30;;;;;;;11.96;47.88;100525.41;6126005;23;20075;-80
2022/04/24 19:08:59;;;;;;;8.98;4.85;;;;;;;12.50;48.89;100655.16;6123415;23;20010;-79
2022/04/24 19:32:12;;;;;;;9.43;4.93;;;;;;;11.68;51.03;100638.63;6036912;23;20499;-83
2022/04/24 19:51:06;;;;;;;12.52;5.45;;;;;;;10.62;54.32;100590.81;5980108;24;20030;-78
2022/04/24 20:01:51;;;;;;;12.38;5.90;;;;;;;10.53;57.33;100632.72;6212324;22;20025;-79
2022/04/24 20:05:06;;;;;;;8.95;5.75;;;;;;;11.27;57.62;100752.66;6214960;23;20043;-84
2022/04/24 20:56:38;;;;;;;11.80;5.95;;;;;;;10.38;64.82;100790.34;6185650;22;20038;31
2022/04/24 21:35:26;;;;;;;12.55;7.00;;;;;;;9.81;66.26;100813.59;6185903;23;20036;-77
2022/04/24 21:41:42;;;;;;;12.73;7.38;;;;;;;8.52;68.26;100642.56;6185495;23;20150;-78
2022/04/24 21:50:08;;;;;;;13.85;6.88;;;;;;;8.25;68.91;100638.00;6186050;23;20020;-78
2022/04/24 21:53:31;;;;;;;11.10;6.95;;;;;;;9.36;68.45;100829.13;6186097;23;20008;-77
2022/04/24 22:16:23;;;;;;;14.20;7.18;;;;;;;8.89;70.77;100839.53;6158415;23;20021;-77
2022/04/24 22:18:52;;;;;;;16.17;7.43;;;;;;;8.30;71.75;100762.09;6155883;23;20313;-76
2022/04/24 22:28:02;;;;;;;13.77;7.22;;;;;;;8.65;71.56;100848.59;6154763;23;20009;-77
2022/04/24 22:30:39;;;;;;;16.10;7.82;;;;;;;7.36;72.39;100660.00;6008350;23;20023;-77
2022/04/24 22:33:17;;;;;;;12.40;7.32;;;;;;;7.29;72.68;100655.28;6011114;23;20003;-77
2022/04/24 22:35:54;;;;;;;14.20;7.50;;;;;;;7.20;73.00;100651.47;6008745;23;20459;-78
2022/04/24 22:38:35;;;;;;;16.67;8.32;;;;;;;7.37;73.01;100694.22;6008442;23;20003;-77
2022/04/24 22:41:40;;;;;;;13.15;7.13;;;;;;;8.29;73.54;100849.66;6008378;23;20034;-77
2022/04/24 22:44:17;;;;;;;12.73;8.02;;;;;;;7.09;73.88;100664.84;6008273;23;20079;-77
2022/04/24 22:46:54;;;;;;;15.38;8.73;;;;;;;7.67;74.16;100763.75;6008733;23;20132;-77
2022/04/24 22:49:57;;;;;;;16.70;8.65;;;;;;;8.17;74.02;100848.56;6008654;23;20346;-79
2022/04/24 22:56:10;;;;;;;17.92;8.05;;;;;;;7.82;75.52;100821.28;6037068;23;20054;-78
2022/04/24 22:58:40;;;;;;;14.82;8.02;;;;;;;7.99;75.69;100857.22;5985483;23;20011;-77
2022/04/24 23:04:51;;;;;;;15.95;8.95;;;;;;;7.14;76.01;100746.78;6007991;23;20011;-77
2022/04/24 23:10:19;;;;;;;15.70;8.00;;;;;;;7.80;75.92;100869.38;6187400;22;19950;-78
2022/04/24 23:16:14;;;;;;;17.13;9.07;;;;;;;7.01;77.11;100758.56;6185288;23;20020;-78
2022/04/24 23:21:57;;;;;;;15.40;8.63;;;;;;;6.77;77.58;100740.88;6184948;23;19943;-78
2022/04/24 23:32:18;;;;;;;17.60;8.73;;;;;;;7.13;78.33;100835.81;6183613;22;20029;-77
2022/04/24 23:37:53;;;;;;;;;;;;;;;7.32;77.17;100876.03;6186200;23;20005;-77
2022/04/24 23:40:24;;;;;;;16.27;9.32;;;;;;;6.01;78.93;100675.28;6186402;23;19908;-77
2022/04/24 23:52:01;;;;;;;16.17;9.30;;;;;;;7.07;80.76;100878.94;6187093;23;20362;-77
2022/04/24 23:54:41;;;;;;;16.08;9.82;;;;;;;7.03;80.65;100880.81;6186800;23;20013;-77
2022/04/24 23:57:18;;;;;;;17.43;9.60;;;;;;;6.99;80.59;100887.03;6187211;23;20423;-75
